sensor_id;sensor_type;location;lat;lon;timestamp;P1;durP1;ratioP1;P2;durP2;ratioP2
12956;SDS011;6543;48.836;10.092;2023-02-15T00:01:56;27.30;;;18.37;;
12956;SDS011;6543;48.836;10.092;2023-02-15T00:04:25;21.50;;;17.10;;
12956;SDS011;6543;48.836;10.092;2023-02-15T00:07:11;22.73;;;17.07;;
12956;SDS011;6543;48.836;10.092;2023-02-15T00:09:39;23.20;;;18.33;;
12956;SDS011;6543;48.836;10.092;2023-02-15T00:12:06;25.67;;;17.83;;
12956;SDS011;6543;48.836;10.092;2023-02-15T00:14:33;27.43;;;16.93;;
12956;SDS011;6543;48.836;10.092;2023-02-15T00:17:00;23.27;;;17.67;;
12956;SDS011;6543;48.836;10.092;2023-02-15T00:19:28;27.97;;;18.50;;
12956;SDS011;6543;48.836;10.092;2023-02-15T00:21:55;21.87;;;15.50;;
12956;SDS011;6543;48.836;10.092;2023-02-15T00:24:21;22.70;;;16.80;;
12956;SDS011;6543;48.836;10.092;2023-02-15T00:26:48;23.43;;;16.47;;
12956;SDS011;6543;48.836;10.092;2023-02-15T00:29:15;23.43;;;17.23;;
12956;SDS011;6543;48.836;10.092;2023-02-15T00:31:43;21.47;;;16.63;;
12956;SDS011;6543;48.836;10.092;2023-02-15T00:34:11;24.47;;;17.70;;
12956;SDS011;6543;48.836;10.092;2023-02-15T00:36:40;32.13;;;17.80;;
12956;SDS011;6543;48.836;10.092;2023-02-15T00:39:07;22.47;;;16.20;;
12956;SDS011;6543;48.836;10.092;2023-02-15T00:41:34;26.43;;;18.43;;
12956;SDS011;6543;48.836;10.092;2023-02-15T00:44:02;23.00;;;16.33;;
12956;SDS011;6543;48.836;10.092;2023-02-15T00:46:30;24.33;;;16.20;;
12956;SDS011;6543;48.836;10.092;2023-02-15T00:48:57;23.20;;;16.47;;
12956;SDS011;6543;48.836;10.092;2023-02-15T00:51:24;23.73;;;16.97;;
12956;SDS011;6543;48.836;10.092;2023-02-15T00:53:52;24.50;;;18.17;;
12956;SDS011;6543;48.836;10.092;2023-02-15T00:56:20;20.90;;;16.13;;
12956;SDS011;6543;48.836;10.092;2023-02-15T00:58:47;24.07;;;17.83;;
12956;SDS011;6543;48.836;10.092;2023-02-15T01:01:14;24.13;;;17.90;;
12956;SDS011;6543;48.836;10.092;2023-02-15T01:03:42;18.97;;;15.03;;
12956;SDS011;6543;48.836;10.092;2023-02-15T01:06:10;23.20;;;17.10;;
12956;SDS011;6543;48.836;10.092;2023-02-15T01:08:38;25.17;;;17.93;;
12956;SDS011;6543;48.836;10.092;2023-02-15T01:11:08;24.93;;;18.27;;
12956;SDS011;6543;48.836;10.092;2023-02-15T01:13:36;23.83;;;17.37;;
12956;SDS011;6543;48.836;10.092;2023-02-15T01:16:03;23.37;;;16.53;;
12956;SDS011;6543;48.836;10.092;2023-02-15T01:18:30;24.60;;;17.90;;
12956;SDS011;6543;48.836;10.092;2023-02-15T01:20:57;24.33;;;17.90;;
12956;SDS011;6543;48.836;10.092;2023-02-15T01:23:24;25.30;;;17.33;;
12956;SDS011;6543;48.836;10.092;2023-02-15T01:25:51;21.97;;;17.13;;
12956;SDS011;6543;48.836;10.092;2023-02-15T01:28:19;23.40;;;18.70;;
12956;SDS011;6543;48.836;10.092;2023-02-15T01:30:46;23.23;;;18.13;;
12956;SDS011;6543;48.836;10.092;2023-02-15T01:33:13;21.80;;;15.33;;
12956;SDS011;6543;48.836;10.092;2023-02-15T01:35:43;21.47;;;15.60;;
12956;SDS011;6543;48.836;10.092;2023-02-15T01:38:11;24.97;;;16.63;;
12956;SDS011;6543;48.836;10.092;2023-02-15T01:40:38;23.63;;;17.50;;
12956;SDS011;6543;48.836;10.092;2023-02-15T01:43:07;22.77;;;16.50;;
12956;SDS011;6543;48.836;10.092;2023-02-15T01:45:37;30.40;;;19.07;;
12956;SDS011;6543;48.836;10.092;2023-02-15T01:48:05;26.17;;;18.17;;
12956;SDS011;6543;48.836;10.092;2023-02-15T01:50:42;22.33;;;15.90;;
12956;SDS011;6543;48.836;10.092;2023-02-15T01:53:13;23.40;;;15.83;;
12956;SDS011;6543;48.836;10.092;2023-02-15T01:55:44;26.03;;;17.50;;
12956;SDS011;6543;48.836;10.092;2023-02-15T01:58:13;22.40;;;16.90;;
12956;SDS011;6543;48.836;10.092;2023-02-15T02:00:42;22.43;;;15.63;;
12956;SDS011;6543;48.836;10.092;2023-02-15T02:03:10;24.90;;;17.27;;
12956;SDS011;6543;48.836;10.092;2023-02-15T02:05:37;20.83;;;16.30;;
12956;SDS011;6543;48.836;10.092;2023-02-15T02:08:05;26.40;;;17.30;;
12956;SDS011;6543;48.836;10.092;2023-02-15T02:10:34;22.03;;;15.97;;
12956;SDS011;6543;48.836;10.092;2023-02-15T02:13:02;24.10;;;17.07;;
12956;SDS011;6543;48.836;10.092;2023-02-15T02:15:33;23.90;;;16.93;;
12956;SDS011;6543;48.836;10.092;2023-02-15T02:18:11;25.77;;;18.60;;
12956;SDS011;6543;48.836;10.092;2023-02-15T02:20:51;25.80;;;18.47;;
12956;SDS011;6543;48.836;10.092;2023-02-15T02:23:40;24.97;;;18.33;;
12956;SDS011;6543;48.836;10.092;2023-02-15T02:35:30;24.53;;;17.33;;
12956;SDS011;6543;48.836;10.092;2023-02-15T02:38:07;24.93;;;18.03;;
12956;SDS011;6543;48.836;10.092;2023-02-15T02:40:41;21.33;;;15.97;;
12956;SDS011;6543;48.836;10.092;2023-02-15T02:43:15;25.47;;;17.20;;
12956;SDS011;6543;48.836;10.092;2023-02-15T02:45:48;26.40;;;18.13;;
12956;SDS011;6543;48.836;10.092;2023-02-15T02:48:19;25.40;;;17.03;;
12956;SDS011;6543;48.836;10.092;2023-02-15T02:50:51;27.03;;;17.80;;
12956;SDS011;6543;48.836;10.092;2023-02-15T02:53:17;23.30;;;17.20;;
12956;SDS011;6543;48.836;10.092;2023-02-15T02:55:45;26.57;;;14.93;;
12956;SDS011;6543;48.836;10.092;2023-02-15T02:58:15;21.73;;;15.33;;
12956;SDS011;6543;48.836;10.092;2023-02-15T03:00:48;24.37;;;16.70;;
12956;SDS011;6543;48.836;10.092;2023-02-15T03:03:20;23.20;;;17.30;;
12956;SDS011;6543;48.836;10.092;2023-02-15T03:05:54;24.20;;;18.27;;
12956;SDS011;6543;48.836;10.092;2023-02-15T03:08:25;25.83;;;18.63;;
12956;SDS011;6543;48.836;10.092;2023-02-15T03:10:56;26.33;;;18.20;;
12956;SDS011;6543;48.836;10.092;2023-02-15T03:13:26;23.37;;;17.57;;
12956;SDS011;6543;48.836;10.092;2023-02-15T03:15:54;26.17;;;16.83;;
12956;SDS011;6543;48.836;10.092;2023-02-15T03:18:41;23.07;;;16.47;;
12956;SDS011;6543;48.836;10.092;2023-02-15T03:21:19;22.50;;;16.27;;
12956;SDS011;6543;48.836;10.092;2023-02-15T03:23:51;24.83;;;17.10;;
12956;SDS011;6543;48.836;10.092;2023-02-15T03:26:22;24.37;;;17.10;;
12956;SDS011;6543;48.836;10.092;2023-02-15T03:28:52;20.63;;;15.83;;
12956;SDS011;6543;48.836;10.092;2023-02-15T03:31:21;23.87;;;15.70;;
12956;SDS011;6543;48.836;10.092;2023-02-15T03:33:53;22.20;;;17.03;;
12956;SDS011;6543;48.836;10.092;2023-02-15T03:36:24;22.60;;;15.43;;
12956;SDS011;6543;48.836;10.092;2023-02-15T03:38:57;22.37;;;15.20;;
12956;SDS011;6543;48.836;10.092;2023-02-15T03:41:29;21.30;;;16.07;;
12956;SDS011;6543;48.836;10.092;2023-02-15T03:44:00;21.87;;;16.57;;
12956;SDS011;6543;48.836;10.092;2023-02-15T03:46:32;25.50;;;16.30;;
12956;SDS011;6543;48.836;10.092;2023-02-15T03:49:05;25.87;;;17.83;;
12956;SDS011;6543;48.836;10.092;2023-02-15T03:51:36;27.63;;;17.83;;
12956;SDS011;6543;48.836;10.092;2023-02-15T03:54:07;26.60;;;17.17;;
12956;SDS011;6543;48.836;10.092;2023-02-15T03:56:35;26.77;;;17.23;;
12956;SDS011;6543;48.836;10.092;2023-02-15T03:59:04;22.57;;;15.27;;
12956;SDS011;6543;48.836;10.092;2023-02-15T04:01:51;23.60;;;16.83;;
12956;SDS011;6543;48.836;10.092;2023-02-15T04:04:30;24.43;;;16.23;;
12956;SDS011;6543;48.836;10.092;2023-02-15T04:07:01;22.50;;;16.20;;
12956;SDS011;6543;48.836;10.092;2023-02-15T04:09:29;22.27;;;16.73;;
12956;SDS011;6543;48.836;10.092;2023-02-15T04:12:13;20.50;;;14.30;;
12956;SDS011;6543;48.836;10.092;2023-02-15T04:14:40;21.00;;;15.07;;
12956;SDS011;6543;48.836;10.092;2023-02-15T04:17:24;24.87;;;16.37;;
12956;SDS011;6543;48.836;10.092;2023-02-15T04:19:51;20.93;;;15.73;;
12956;SDS011;6543;48.836;10.092;2023-02-15T04:22:37;22.07;;;16.07;;
12956;SDS011;6543;48.836;10.092;2023-02-15T04:25:21;21.47;;;15.40;;
12956;SDS011;6543;48.836;10.092;2023-02-15T04:27:48;20.57;;;14.50;;
12956;SDS011;6543;48.836;10.092;2023-02-15T04:30:17;20.80;;;15.70;;
12956;SDS011;6543;48.836;10.092;2023-02-15T04:32:46;20.07;;;15.20;;
12956;SDS011;6543;48.836;10.092;2023-02-15T04:35:13;21.63;;;15.77;;
12956;SDS011;6543;48.836;10.092;2023-02-15T04:37:42;21.97;;;15.70;;
12956;SDS011;6543;48.836;10.092;2023-02-15T04:40:10;18.87;;;14.37;;
12956;SDS011;6543;48.836;10.092;2023-02-15T04:42:38;19.73;;;15.40;;
12956;SDS011;6543;48.836;10.092;2023-02-15T04:45:05;19.07;;;13.60;;
12956;SDS011;6543;48.836;10.092;2023-02-15T04:47:33;18.17;;;12.93;;
12956;SDS011;6543;48.836;10.092;2023-02-15T04:49:59;19.97;;;14.53;;
12956;SDS011;6543;48.836;10.092;2023-02-15T04:52:26;17.37;;;13.57;;
12956;SDS011;6543;48.836;10.092;2023-02-15T04:54:54;20.63;;;16.13;;
12956;SDS011;6543;48.836;10.092;2023-02-15T04:57:21;19.67;;;15.73;;
12956;SDS011;6543;48.836;10.092;2023-02-15T04:59:48;19.47;;;15.43;;
12956;SDS011;6543;48.836;10.092;2023-02-15T05:02:15;19.77;;;15.37;;
12956;SDS011;6543;48.836;10.092;2023-02-15T05:04:42;19.43;;;14.57;;
12956;SDS011;6543;48.836;10.092;2023-02-15T05:07:08;19.93;;;15.63;;
12956;SDS011;6543;48.836;10.092;2023-02-15T05:09:35;18.23;;;14.23;;
12956;SDS011;6543;48.836;10.092;2023-02-15T05:12:04;16.20;;;13.70;;
12956;SDS011;6543;48.836;10.092;2023-02-15T05:14:31;20.07;;;14.27;;
12956;SDS011;6543;48.836;10.092;2023-02-15T05:16:57;22.63;;;16.10;;
12956;SDS011;6543;48.836;10.092;2023-02-15T05:19:26;17.70;;;14.03;;
12956;SDS011;6543;48.836;10.092;2023-02-15T05:21:53;20.00;;;14.50;;
12956;SDS011;6543;48.836;10.092;2023-02-15T05:24:20;21.27;;;14.60;;
12956;SDS011;6543;48.836;10.092;2023-02-15T05:27:06;16.87;;;14.23;;
12956;SDS011;6543;48.836;10.092;2023-02-15T05:29:53;20.40;;;14.57;;
12956;SDS011;6543;48.836;10.092;2023-02-15T05:32:20;18.77;;;13.70;;
12956;SDS011;6543;48.836;10.092;2023-02-15T05:34:47;21.23;;;15.90;;
12956;SDS011;6543;48.836;10.092;2023-02-15T05:37:14;22.73;;;16.70;;
12956;SDS011;6543;48.836;10.092;2023-02-15T05:39:41;20.30;;;15.77;;
12956;SDS011;6543;48.836;10.092;2023-02-15T05:42:09;21.40;;;15.93;;
12956;SDS011;6543;48.836;10.092;2023-02-15T05:44:36;19.20;;;14.03;;
12956;SDS011;6543;48.836;10.092;2023-02-15T05:47:02;19.17;;;14.57;;
12956;SDS011;6543;48.836;10.092;2023-02-15T05:49:32;21.83;;;15.23;;
12956;SDS011;6543;48.836;10.092;2023-02-15T05:51:59;19.43;;;15.20;;
12956;SDS011;6543;48.836;10.092;2023-02-15T05:54:26;19.17;;;15.07;;
12956;SDS011;6543;48.836;10.092;2023-02-15T05:56:53;23.17;;;15.50;;
12956;SDS011;6543;48.836;10.092;2023-02-15T05:59:22;22.80;;;16.23;;
12956;SDS011;6543;48.836;10.092;2023-02-15T06:01:49;21.97;;;16.07;;
12956;SDS011;6543;48.836;10.092;2023-02-15T06:04:15;22.20;;;16.17;;
12956;SDS011;6543;48.836;10.092;2023-02-15T06:06:42;21.37;;;15.10;;
12956;SDS011;6543;48.836;10.092;2023-02-15T06:09:10;17.10;;;14.17;;
12956;SDS011;6543;48.836;10.092;2023-02-15T06:11:37;18.83;;;14.30;;
12956;SDS011;6543;48.836;10.092;2023-02-15T06:14:03;20.77;;;14.93;;
12956;SDS011;6543;48.836;10.092;2023-02-15T06:16:32;22.50;;;16.43;;
12956;SDS011;6543;48.836;10.092;2023-02-15T06:18:58;23.73;;;16.17;;
12956;SDS011;6543;48.836;10.092;2023-02-15T06:21:28;21.53;;;15.60;;
12956;SDS011;6543;48.836;10.092;2023-02-15T06:23:55;32.30;;;17.67;;
12956;SDS011;6543;48.836;10.092;2023-02-15T06:26:22;19.73;;;14.77;;
12956;SDS011;6543;48.836;10.092;2023-02-15T06:28:49;18.90;;;15.10;;
12956;SDS011;6543;48.836;10.092;2023-02-15T06:31:16;16.13;;;12.07;;
12956;SDS011;6543;48.836;10.092;2023-02-15T06:33:44;19.77;;;14.33;;
12956;SDS011;6543;48.836;10.092;2023-02-15T06:36:11;18.90;;;14.07;;
12956;SDS011;6543;48.836;10.092;2023-02-15T06:38:38;20.60;;;13.67;;
12956;SDS011;6543;48.836;10.092;2023-02-15T06:41:05;18.63;;;13.97;;
12956;SDS011;6543;48.836;10.092;2023-02-15T06:43:32;16.03;;;12.60;;
12956;SDS011;6543;48.836;10.092;2023-02-15T06:45:59;17.60;;;13.67;;
12956;SDS011;6543;48.836;10.092;2023-02-15T06:48:26;19.47;;;13.97;;
12956;SDS011;6543;48.836;10.092;2023-02-15T06:50:54;18.90;;;15.37;;
12956;SDS011;6543;48.836;10.092;2023-02-15T06:53:21;18.57;;;14.37;;
12956;SDS011;6543;48.836;10.092;2023-02-15T06:55:48;17.73;;;14.30;;
12956;SDS011;6543;48.836;10.092;2023-02-15T06:58:15;23.77;;;15.97;;
12956;SDS011;6543;48.836;10.092;2023-02-15T07:00:41;23.30;;;15.30;;
12956;SDS011;6543;48.836;10.092;2023-02-15T07:03:08;22.07;;;15.77;;
12956;SDS011;6543;48.836;10.092;2023-02-15T07:05:35;19.50;;;13.60;;
12956;SDS011;6543;48.836;10.092;2023-02-15T07:08:03;19.50;;;13.33;;
12956;SDS011;6543;48.836;10.092;2023-02-15T07:10:30;19.83;;;13.17;;
12956;SDS011;6543;48.836;10.092;2023-02-15T07:12:57;20.50;;;14.90;;
12956;SDS011;6543;48.836;10.092;2023-02-15T07:15:23;18.37;;;14.03;;
12956;SDS011;6543;48.836;10.092;2023-02-15T07:17:50;17.13;;;12.77;;
12956;SDS011;6543;48.836;10.092;2023-02-15T07:20:18;17.83;;;13.90;;
12956;SDS011;6543;48.836;10.092;2023-02-15T07:22:46;21.60;;;14.77;;
12956;SDS011;6543;48.836;10.092;2023-02-15T07:25:15;22.13;;;14.60;;
12956;SDS011;6543;48.836;10.092;2023-02-15T07:27:43;21.97;;;15.23;;
12956;SDS011;6543;48.836;10.092;2023-02-15T07:30:11;19.20;;;14.03;;
12956;SDS011;6543;48.836;10.092;2023-02-15T07:32:40;18.33;;;14.07;;
12956;SDS011;6543;48.836;10.092;2023-02-15T07:35:21;20.43;;;13.13;;
12956;SDS011;6543;48.836;10.092;2023-02-15T07:37:48;17.47;;;13.93;;
12956;SDS011;6543;48.836;10.092;2023-02-15T07:40:16;16.57;;;11.13;;
12956;SDS011;6543;48.836;10.092;2023-02-15T07:42:43;17.87;;;13.70;;
12956;SDS011;6543;48.836;10.092;2023-02-15T07:45:10;20.97;;;14.30;;
12956;SDS011;6543;48.836;10.092;2023-02-15T07:47:37;19.83;;;15.60;;
12956;SDS011;6543;48.836;10.092;2023-02-15T07:50:04;17.70;;;13.63;;
12956;SDS011;6543;48.836;10.092;2023-02-15T07:52:32;15.93;;;13.13;;
12956;SDS011;6543;48.836;10.092;2023-02-15T07:54:59;20.00;;;14.07;;
12956;SDS011;6543;48.836;10.092;2023-02-15T07:57:27;19.90;;;12.73;;
12956;SDS011;6543;48.836;10.092;2023-02-15T07:59:55;17.23;;;13.27;;
12956;SDS011;6543;48.836;10.092;2023-02-15T08:02:22;19.73;;;14.60;;
12956;SDS011;6543;48.836;10.092;2023-02-15T08:04:49;14.50;;;12.40;;
12956;SDS011;6543;48.836;10.092;2023-02-15T08:07:16;13.23;;;11.03;;
12956;SDS011;6543;48.836;10.092;2023-02-15T08:09:43;14.95;;;13.35;;
12956;SDS011;6543;48.836;10.092;2023-02-15T08:12:10;13.47;;;11.67;;
12956;SDS011;6543;48.836;10.092;2023-02-15T08:14:38;14.80;;;13.27;;
12956;SDS011;6543;48.836;10.092;2023-02-15T08:17:05;13.85;;;12.38;;
12956;SDS011;6543;48.836;10.092;2023-02-15T08:19:32;16.30;;;12.43;;
12956;SDS011;6543;48.836;10.092;2023-02-15T08:22:00;15.27;;;12.23;;
12956;SDS011;6543;48.836;10.092;2023-02-15T08:24:28;12.83;;;11.27;;
12956;SDS011;6543;48.836;10.092;2023-02-15T08:26:57;12.47;;;8.43;;
12956;SDS011;6543;48.836;10.092;2023-02-15T08:29:25;17.57;;;11.70;;
12956;SDS011;6543;48.836;10.092;2023-02-15T08:31:55;17.33;;;11.73;;
12956;SDS011;6543;48.836;10.092;2023-02-15T08:34:27;13.77;;;11.40;;
12956;SDS011;6543;48.836;10.092;2023-02-15T08:36:55;14.27;;;10.87;;
12956;SDS011;6543;48.836;10.092;2023-02-15T08:39:22;20.20;;;10.23;;
12956;SDS011;6543;48.836;10.092;2023-02-15T08:41:49;12.90;;;9.63;;
12956;SDS011;6543;48.836;10.092;2023-02-15T08:44:17;11.27;;;9.37;;
12956;SDS011;6543;48.836;10.092;2023-02-15T08:46:45;14.23;;;11.07;;
12956;SDS011;6543;48.836;10.092;2023-02-15T08:49:17;15.33;;;10.37;;
12956;SDS011;6543;48.836;10.092;2023-02-15T08:51:45;11.87;;;9.20;;
12956;SDS011;6543;48.836;10.092;2023-02-15T08:54:13;11.40;;;9.40;;
12956;SDS011;6543;48.836;10.092;2023-02-15T08:56:42;7.83;;;6.63;;
12956;SDS011;6543;48.836;10.092;2023-02-15T08:59:11;13.53;;;9.83;;
12956;SDS011;6543;48.836;10.092;2023-02-15T09:01:41;10.67;;;9.17;;
12956;SDS011;6543;48.836;10.092;2023-02-15T09:04:08;12.80;;;9.07;;
12956;SDS011;6543;48.836;10.092;2023-02-15T09:06:37;12.83;;;9.73;;
12956;SDS011;6543;48.836;10.092;2023-02-15T09:09:05;13.43;;;10.00;;
12956;SDS011;6543;48.836;10.092;2023-02-15T09:11:34;9.83;;;8.83;;
12956;SDS011;6543;48.836;10.092;2023-02-15T09:14:02;10.93;;;9.07;;
12956;SDS011;6543;48.836;10.092;2023-02-15T09:16:31;11.57;;;10.20;;
12956;SDS011;6543;48.836;10.092;2023-02-15T09:18:59;11.07;;;9.10;;
12956;SDS011;6543;48.836;10.092;2023-02-15T09:21:27;13.10;;;7.60;;
12956;SDS011;6543;48.836;10.092;2023-02-15T09:26:26;8.33;;;7.43;;
12956;SDS011;6543;48.836;10.092;2023-02-15T09:28:54;10.50;;;8.97;;
12956;SDS011;6543;48.836;10.092;2023-02-15T09:31:26;12.73;;;9.23;;
12956;SDS011;6543;48.836;10.092;2023-02-15T09:33:55;10.20;;;8.33;;
12956;SDS011;6543;48.836;10.092;2023-02-15T09:36:23;11.07;;;9.57;;
12956;SDS011;6543;48.836;10.092;2023-02-15T09:38:53;10.00;;;8.83;;
12956;SDS011;6543;48.836;10.092;2023-02-15T09:41:48;10.60;;;9.47;;
12956;SDS011;6543;48.836;10.092;2023-02-15T09:44:38;10.23;;;9.13;;
12956;SDS011;6543;48.836;10.092;2023-02-15T09:47:14;10.73;;;9.20;;
12956;SDS011;6543;48.836;10.092;2023-02-15T09:49:49;13.23;;;8.77;;
12956;SDS011;6543;48.836;10.092;2023-02-15T09:52:31;14.97;;;8.80;;
12956;SDS011;6543;48.836;10.092;2023-02-15T09:55:08;12.97;;;9.80;;
12956;SDS011;6543;48.836;10.092;2023-02-15T09:57:45;10.03;;;8.87;;
12956;SDS011;6543;48.836;10.092;2023-02-15T10:00:22;13.43;;;8.50;;
12956;SDS011;6543;48.836;10.092;2023-02-15T10:03:10;11.13;;;9.37;;
12956;SDS011;6543;48.836;10.092;2023-02-15T10:05:54;12.53;;;10.97;;
12956;SDS011;6543;48.836;10.092;2023-02-15T10:08:38;9.67;;;8.67;;
12956;SDS011;6543;48.836;10.092;2023-02-15T10:11:20;12.37;;;8.73;;
12956;SDS011;6543;48.836;10.092;2023-02-15T10:14:12;9.30;;;8.30;;
12956;SDS011;6543;48.836;10.092;2023-02-15T10:16:42;10.00;;;8.77;;
12956;SDS011;6543;48.836;10.092;2023-02-15T10:19:15;10.60;;;8.90;;
12956;SDS011;6543;48.836;10.092;2023-02-15T10:21:54;10.43;;;8.63;;
12956;SDS011;6543;48.836;10.092;2023-02-15T10:24:38;9.70;;;8.70;;
12956;SDS011;6543;48.836;10.092;2023-02-15T10:27:12;10.60;;;8.97;;
12956;SDS011;6543;48.836;10.092;2023-02-15T10:29:47;10.53;;;8.30;;
12956;SDS011;6543;48.836;10.092;2023-02-15T10:32:26;12.47;;;8.43;;
12956;SDS011;6543;48.836;10.092;2023-02-15T10:34:56;11.10;;;8.17;;
12956;SDS011;6543;48.836;10.092;2023-02-15T10:37:47;10.17;;;8.47;;
12956;SDS011;6543;48.836;10.092;2023-02-15T10:40:33;10.07;;;7.93;;
12956;SDS011;6543;48.836;10.092;2023-02-15T10:43:10;11.37;;;8.60;;
12956;SDS011;6543;48.836;10.092;2023-02-15T10:45:49;13.50;;;8.10;;
12956;SDS011;6543;48.836;10.092;2023-02-15T10:48:28;13.17;;;9.20;;
12956;SDS011;6543;48.836;10.092;2023-02-15T10:51:19;10.07;;;8.47;;
12956;SDS011;6543;48.836;10.092;2023-02-15T10:54:02;9.70;;;8.70;;
12956;SDS011;6543;48.836;10.092;2023-02-15T10:56:36;8.67;;;7.77;;
12956;SDS011;6543;48.836;10.092;2023-02-15T10:59:18;12.07;;;8.50;;
12956;SDS011;6543;48.836;10.092;2023-02-15T11:01:59;10.53;;;8.30;;
12956;SDS011;6543;48.836;10.092;2023-02-15T11:04:40;10.00;;;8.37;;
12956;SDS011;6543;48.836;10.092;2023-02-15T11:07:14;21.90;;;8.23;;
12956;SDS011;6543;48.836;10.092;2023-02-15T11:09:45;10.90;;;8.57;;
12956;SDS011;6543;48.836;10.092;2023-02-15T11:12:16;9.67;;;7.90;;
12956;SDS011;6543;48.836;10.092;2023-02-15T11:14:46;11.83;;;7.43;;
12956;SDS011;6543;48.836;10.092;2023-02-15T11:17:21;12.90;;;9.63;;
12956;SDS011;6543;48.836;10.092;2023-02-15T11:19:55;11.37;;;7.77;;
12956;SDS011;6543;48.836;10.092;2023-02-15T11:22:28;8.97;;;7.40;;
12956;SDS011;6543;48.836;10.092;2023-02-15T11:24:56;10.57;;;7.90;;
12956;SDS011;6543;48.836;10.092;2023-02-15T11:27:25;9.47;;;8.17;;
12956;SDS011;6543;48.836;10.092;2023-02-15T11:29:57;11.70;;;8.50;;
12956;SDS011;6543;48.836;10.092;2023-02-15T11:32:28;10.43;;;8.00;;
12956;SDS011;6543;48.836;10.092;2023-02-15T11:34:59;11.97;;;9.67;;
12956;SDS011;6543;48.836;10.092;2023-02-15T11:37:32;13.47;;;8.70;;
12956;SDS011;6543;48.836;10.092;2023-02-15T11:40:03;9.63;;;8.20;;
12956;SDS011;6543;48.836;10.092;2023-02-15T11:42:41;11.00;;;9.13;;
12956;SDS011;6543;48.836;10.092;2023-02-15T11:45:16;12.50;;;9.23;;
12956;SDS011;6543;48.836;10.092;2023-02-15T11:47:50;13.47;;;10.27;;
12956;SDS011;6543;48.836;10.092;2023-02-15T11:50:19;15.77;;;10.60;;
12956;SDS011;6543;48.836;10.092;2023-02-15T11:52:49;12.10;;;10.77;;
12956;SDS011;6543;48.836;10.092;2023-02-15T11:55:18;14.83;;;10.43;;
12956;SDS011;6543;48.836;10.092;2023-02-15T11:57:48;14.90;;;12.00;;
12956;SDS011;6543;48.836;10.092;2023-02-15T12:00:24;15.90;;;12.77;;
12956;SDS011;6543;48.836;10.092;2023-02-15T12:03:02;15.13;;;10.87;;
12956;SDS011;6543;48.836;10.092;2023-02-15T12:05:35;12.93;;;9.90;;
12956;SDS011;6543;48.836;10.092;2023-02-15T12:08:12;18.67;;;9.90;;
12956;SDS011;6543;48.836;10.092;2023-02-15T12:10:46;15.63;;;10.10;;
12956;SDS011;6543;48.836;10.092;2023-02-15T12:13:28;18.97;;;10.67;;
12956;SDS011;6543;48.836;10.092;2023-02-15T12:15:56;14.27;;;10.17;;
12956;SDS011;6543;48.836;10.092;2023-02-15T12:18:36;15.17;;;10.53;;
12956;SDS011;6543;48.836;10.092;2023-02-15T12:21:06;12.93;;;10.83;;
12956;SDS011;6543;48.836;10.092;2023-02-15T12:23:39;14.53;;;12.23;;
12956;SDS011;6543;48.836;10.092;2023-02-15T12:26:12;18.47;;;10.80;;
12956;SDS011;6543;48.836;10.092;2023-02-15T12:28:40;14.37;;;11.67;;
12956;SDS011;6543;48.836;10.092;2023-02-15T12:31:10;16.67;;;12.20;;
12956;SDS011;6543;48.836;10.092;2023-02-15T12:33:48;20.00;;;14.40;;
12956;SDS011;6543;48.836;10.092;2023-02-15T12:36:19;19.03;;;15.70;;
12956;SDS011;6543;48.836;10.092;2023-02-15T12:39:04;18.37;;;13.60;;
12956;SDS011;6543;48.836;10.092;2023-02-15T12:41:43;25.73;;;14.37;;
12956;SDS011;6543;48.836;10.092;2023-02-15T12:44:15;20.77;;;14.07;;
12956;SDS011;6543;48.836;10.092;2023-02-15T12:46:47;18.57;;;12.77;;
12956;SDS011;6543;48.836;10.092;2023-02-15T12:49:24;15.37;;;12.47;;
12956;SDS011;6543;48.836;10.092;2023-02-15T12:51:53;14.77;;;11.73;;
12956;SDS011;6543;48.836;10.092;2023-02-15T12:54:31;18.97;;;11.37;;
12956;SDS011;6543;48.836;10.092;2023-02-15T12:57:14;16.37;;;11.90;;
12956;SDS011;6543;48.836;10.092;2023-02-15T12:59:48;14.23;;;12.07;;
12956;SDS011;6543;48.836;10.092;2023-02-15T13:02:18;13.63;;;11.53;;
12956;SDS011;6543;48.836;10.092;2023-02-15T13:04:50;13.83;;;10.57;;
12956;SDS011;6543;48.836;10.092;2023-02-15T13:07:18;11.77;;;10.03;;
12956;SDS011;6543;48.836;10.092;2023-02-15T13:09:46;20.60;;;11.13;;
12956;SDS011;6543;48.836;10.092;2023-02-15T13:12:17;15.13;;;10.50;;
12956;SDS011;6543;48.836;10.092;2023-02-15T13:14:47;11.30;;;10.10;;
12956;SDS011;6543;48.836;10.092;2023-02-15T13:17:17;11.13;;;8.53;;
12956;SDS011;6543;48.836;10.092;2023-02-15T13:19:50;14.43;;;9.83;;
12956;SDS011;6543;48.836;10.092;2023-02-15T13:22:23;12.40;;;9.17;;
12956;SDS011;6543;48.836;10.092;2023-02-15T13:24:56;9.70;;;8.63;;
12956;SDS011;6543;48.836;10.092;2023-02-15T13:27:27;12.07;;;8.97;;
12956;SDS011;6543;48.836;10.092;2023-02-15T13:30:02;14.80;;;9.27;;
12956;SDS011;6543;48.836;10.092;2023-02-15T13:32:37;11.10;;;8.90;;
12956;SDS011;6543;48.836;10.092;2023-02-15T13:35:13;14.23;;;8.20;;
12956;SDS011;6543;48.836;10.092;2023-02-15T13:40:32;10.93;;;8.83;;
12956;SDS011;6543;48.836;10.092;2023-02-15T13:43:05;10.07;;;8.17;;
12956;SDS011;6543;48.836;10.092;2023-02-15T13:45:50;10.13;;;8.60;;
12956;SDS011;6543;48.836;10.092;2023-02-15T13:48:31;12.10;;;8.03;;
12956;SDS011;6543;48.836;10.092;2023-02-15T13:51:12;11.80;;;8.73;;
12956;SDS011;6543;48.836;10.092;2023-02-15T13:53:58;14.33;;;9.03;;
12956;SDS011;6543;48.836;10.092;2023-02-15T13:56:39;12.93;;;8.43;;
12956;SDS011;6543;48.836;10.092;2023-02-15T13:59:28;14.97;;;8.27;;
12956;SDS011;6543;48.836;10.092;2023-02-15T14:05:30;14.77;;;9.47;;
12956;SDS011;6543;48.836;10.092;2023-02-15T14:08:10;12.87;;;8.93;;
12956;SDS011;6543;48.836;10.092;2023-02-15T14:10:44;13.87;;;9.37;;
12956;SDS011;6543;48.836;10.092;2023-02-15T14:16:20;18.27;;;8.20;;
12956;SDS011;6543;48.836;10.092;2023-02-15T14:18:59;14.10;;;8.40;;
12956;SDS011;6543;48.836;10.092;2023-02-15T14:21:31;12.80;;;7.93;;
12956;SDS011;6543;48.836;10.092;2023-02-15T14:24:12;15.97;;;7.97;;
12956;SDS011;6543;48.836;10.092;2023-02-15T14:26:52;14.03;;;8.47;;
12956;SDS011;6543;48.836;10.092;2023-02-15T14:29:35;15.60;;;7.77;;
12956;SDS011;6543;48.836;10.092;2023-02-15T14:32:13;11.53;;;8.20;;
12956;SDS011;6543;48.836;10.092;2023-02-15T14:34:46;13.67;;;8.20;;
12956;SDS011;6543;48.836;10.092;2023-02-15T14:37:19;15.07;;;8.57;;
12956;SDS011;6543;48.836;10.092;2023-02-15T14:39:54;12.33;;;8.70;;
12956;SDS011;6543;48.836;10.092;2023-02-15T14:42:43;8.03;;;7.03;;
12956;SDS011;6543;48.836;10.092;2023-02-15T14:45:19;14.50;;;7.97;;
12956;SDS011;6543;48.836;10.092;2023-02-15T14:47:52;11.17;;;8.30;;
12956;SDS011;6543;48.836;10.092;2023-02-15T14:53:24;12.37;;;8.10;;
12956;SDS011;6543;48.836;10.092;2023-02-15T15:01:42;26.67;;;9.83;;
12956;SDS011;6543;48.836;10.092;2023-02-15T15:04:22;19.43;;;9.67;;
12956;SDS011;6543;48.836;10.092;2023-02-15T15:07:00;17.90;;;10.10;;
12956;SDS011;6543;48.836;10.092;2023-02-15T15:09:34;13.77;;;8.97;;
12956;SDS011;6543;48.836;10.092;2023-02-15T15:15:02;17.63;;;9.33;;
12956;SDS011;6543;48.836;10.092;2023-02-15T15:20:39;18.87;;;10.83;;
12956;SDS011;6543;48.836;10.092;2023-02-15T15:29:02;16.33;;;10.60;;
12956;SDS011;6543;48.836;10.092;2023-02-15T15:31:41;20.00;;;11.30;;
12956;SDS011;6543;48.836;10.092;2023-02-15T15:34:16;21.07;;;11.73;;